Canones, New Mexico
Current Conditions -  °F | °C
As of 5:15 AM on Sunday 23 Nov 2014 (Local Time) from KLAM Reporting Station
Clear Clear  
Wind Chill: 29°   Ceiling: Unl
Heat Index: 38°   Visibility: 10mi
Dew Point: 20°   Wind: 14mph
Humidity: 49%   Direction: 280°W
Pressure: 29.76"   Gusts: 20mph
Location:  36.19°N, 106.44°W
Report Text: KLAM 231215Z AUTO 28012G17KT 10SM CLR 03/M07 A2976 RMK AO2 T00321067
Loading
Personal Weather Stations






























Interactive Weather Map New forecast layout! Learn more

10-Day Weather Forecast

Advertisements
Track Severe Weather on mobile